Time;durP1;ratioP1;P1;durP2;ratioP2;P2;SDS_P1;SDS_P2;PMS_P1;PMS_P2;Temp;Humidity;BMP_temperature;BMP_pressure;BME280_temperature;BME280_humidity;BME280_pressure;Samples;Min_cycle;Max_cycle;Signal;HPM_P1;HPM_P2
2023/10/02 00:02:40;;;;;;;78.07;73.78;;;20.80;99.90;;;;;;5050677;28;20033;-73
2023/10/02 00:05:07;;;;;;;;;;;20.80;99.90;;;;;;5048200;28;20036;-74
2023/10/02 00:07:33;;;;;;;52.00;48.80;;;20.70;99.90;;;;;;5049457;28;19913;-73
2023/10/02 00:10:00;;;;;;;69.90;65.85;;;20.70;99.90;;;;;;5051472;28;20052;-72
2023/10/02 00:12:28;;;;;;;76.75;72.53;;;20.70;99.90;;;;;;5050578;28;20033;-73
2023/10/02 00:14:55;;;;;;;81.75;77.05;;;20.80;99.90;;;;;;5050969;28;20048;-73
2023/10/02 00:17:23;;;;;;;76.72;72.32;;;20.80;99.90;;;;;;5033490;28;20055;-73
2023/10/02 00:20:05;;;;;;;79.90;75.50;;;20.70;99.90;;;;;;5051236;28;20041;-73
2023/10/02 00:22:43;;;;;;;80.15;75.65;;;20.70;99.90;;;;;;5051805;28;20048;-73
2023/10/02 00:25:16;;;;;;;75.28;71.00;;;20.70;99.90;;;;;;5050872;28;20056;-73
2023/10/02 00:27:48;;;;;;;79.50;74.60;;;20.70;99.90;;;;;;5043643;28;20431;-73
2023/10/02 00:30:15;;;;;;;69.57;65.45;;;20.70;99.90;;;;;;5050138;28;20503;-73
2023/10/02 00:32:45;;;;;;;71.30;66.97;;;20.60;99.90;;;;;;5051660;28;20036;-73
2023/10/02 00:35:11;;;;;;;64.88;60.97;;;20.50;99.90;;;;;;5050996;28;20037;-72
2023/10/02 00:37:45;;;;;;;67.93;63.65;;;20.50;99.90;;;;;;5051573;28;20461;-72
2023/10/02 00:40:14;;;;;;;72.18;68.07;;;20.40;99.90;;;;;;5049902;28;20037;-73
2023/10/02 00:42:40;;;;;;;69.90;65.97;;;20.40;99.90;;;;;;5051643;28;20041;-72
2023/10/02 00:45:08;;;;;;;65.38;61.35;;;20.40;99.90;;;;;;5051520;28;20036;-73
2023/10/02 00:47:49;;;;;;;66.70;62.90;;;20.50;99.90;;;;;;5036876;28;20488;-73
2023/10/02 00:50:20;;;;;;;59.47;56.05;;;20.40;99.90;;;;;;5050237;28;20052;-73
2023/10/02 00:52:58;;;;;;;62.97;58.97;;;20.50;99.90;;;;;;5054193;28;20041;-72
2023/10/02 00:55:35;;;;;;;65.05;61.25;;;20.40;99.90;;;;;;5053741;28;20053;-73
2023/10/02 00:58:05;;;;;;;61.97;58.38;;;20.40;99.90;;;;;;5056123;28;20025;-72
2023/10/02 01:00:55;;;;;;;67.67;63.77;;;20.20;99.90;;;;;;5054078;28;20048;-73
2023/10/02 01:03:19;;;;;;;61.10;57.55;;;20.30;99.90;;;;;;5054016;28;20049;-73
2023/10/02 01:05:50;;;;;;;61.53;58.03;;;20.30;99.90;;;;;;5054358;28;20037;-73
2023/10/02 01:08:24;;;;;;;50.85;47.75;;;20.30;99.90;;;;;;5055466;28;20052;-73
2023/10/02 01:10:56;;;;;;;50.90;47.42;;;20.10;99.90;;;;;;5054659;28;20040;-72
2023/10/02 01:13:27;;;;;;;46.30;43.53;;;19.90;99.90;;;;;;5055140;28;20051;-73
2023/10/02 01:15:59;;;;;;;54.05;50.83;;;19.70;99.90;;;;;;5054526;28;20041;-73
2023/10/02 01:18:28;;;;;;;55.03;51.83;;;19.80;99.90;;;;;;5054765;28;20052;-73
2023/10/02 01:20:59;;;;;;;52.72;49.58;;;19.80;99.90;;;;;;5055293;28;20043;-73
2023/10/02 01:23:32;;;;;;;63.45;59.97;;;19.80;99.90;;;;;;5054682;28;20037;-73
2023/10/02 01:26:00;;;;;;;62.70;58.83;;;19.90;99.90;;;;;;5054866;28;20041;-73
2023/10/02 01:28:51;;;;;;;56.85;53.50;;;19.90;99.90;;;;;;5054677;28;20037;-73
2023/10/02 01:31:35;;;;;;;;;;;19.80;99.90;;;;;;5054627;28;20045;-73
2023/10/02 01:34:04;;;;;;;55.30;51.75;;;19.70;99.90;;;;;;5053986;28;20378;-73
2023/10/02 01:36:32;;;;;;;51.63;48.38;;;19.70;99.90;;;;;;5054544;28;20041;-73
2023/10/02 01:39:10;;;;;;;53.97;50.78;;;19.70;99.90;;;;;;5036593;28;20048;-72
2023/10/02 01:41:48;;;;;;;53.78;50.35;;;19.80;99.90;;;;;;5054100;28;20043;-73
2023/10/02 01:44:18;;;;;;;52.47;49.08;;;19.80;99.90;;;;;;5050744;28;20036;-73
2023/10/02 01:46:50;;;;;;;52.92;49.47;;;19.80;99.90;;;;;;5053604;28;20045;-72
2023/10/02 01:49:25;;;;;;;49.47;46.20;;;19.80;99.90;;;;;;5054659;28;20041;-73
2023/10/02 01:51:55;;;;;;;52.10;48.70;;;19.80;99.90;;;;;;5053936;28;20380;-72
2023/10/02 01:54:22;;;;;;;54.95;51.42;;;19.70;99.90;;;;;;5054578;28;20046;-73
2023/10/02 01:56:49;;;;;;;56.30;52.70;;;19.60;99.90;;;;;;5053757;28;20041;-72
2023/10/02 01:59:18;;;;;;;55.90;52.28;;;19.60;99.90;;;;;;5054226;28;20041;-73
2023/10/02 02:01:51;;;;;;;56.72;53.08;;;19.70;99.90;;;;;;5052048;28;20067;-72
2023/10/02 02:04:21;;;;;;;56.85;53.28;;;19.70;99.90;;;;;;5053401;28;20422;-72
2023/10/02 02:06:54;;;;;;;52.50;48.88;;;19.60;99.90;;;;;;5053818;28;20025;-72
2023/10/02 02:09:24;;;;;;;54.42;50.92;;;19.60;99.90;;;;;;5053893;28;20053;-73
2023/10/02 02:14:53;;;;;;;70.75;66.32;;;19.80;99.90;;;;;;5057869;28;20132;-73
2023/10/02 02:17:24;;;;;;;71.03;66.75;;;19.80;99.90;;;;;;5053257;28;20492;-72
2023/10/02 02:19:50;;;;;;;71.57;66.82;;;19.80;99.90;;;;;;5054432;28;20033;-73
2023/10/02 02:22:17;;;;;;;75.60;71.00;;;19.70;99.90;;;;;;5052961;28;20021;-73
2023/10/02 02:24:47;;;;;;;60.92;57.08;;;19.60;99.90;;;;;;5054055;28;20049;-72
2023/10/02 02:27:19;;;;;;;75.83;71.40;;;19.60;99.90;;;;;;5052171;28;20037;-72
2023/10/02 02:29:46;;;;;;;72.88;68.38;;;19.50;99.90;;;;;;5053774;28;20047;-73
2023/10/02 02:32:13;;;;;;;70.00;65.57;;;19.60;99.90;;;;;;5052936;28;20029;-73
2023/10/02 02:34:39;;;;;;;59.20;55.42;;;19.60;99.90;;;;;;5053242;28;20499;-73
2023/10/02 02:37:06;;;;;;;71.80;67.05;;;19.50;99.90;;;;;;5053393;28;20092;-73
2023/10/02 02:39:37;;;;;;;73.13;68.88;;;19.50;99.90;;;;;;5053527;28;20045;-72
2023/10/02 02:42:11;;;;;;;65.13;60.67;;;19.50;99.90;;;;;;5053263;28;20041;-72
2023/10/02 02:44:40;;;;;;;71.40;66.97;;;19.50;99.90;;;;;;5054015;28;20041;-73
2023/10/02 02:47:09;;;;;;;75.18;70.78;;;19.50;99.90;;;;;;5052670;28;20029;-73
2023/10/02 02:50:11;;;;;;;57.38;53.80;;;19.50;99.90;;;;;;5053305;28;20041;-73
2023/10/02 02:52:32;;;;;;;65.25;61.15;;;19.30;99.90;;;;;;5052295;28;20041;-73
2023/10/02 02:55:12;;;;;;;58.42;54.47;;;18.90;99.90;;;;;;5054158;28;20045;-72
2023/10/02 02:57:39;;;;;;;61.20;57.25;;;19.00;99.90;;;;;;5033910;28;20041;-73
2023/10/02 03:02:54;;;;;;;60.25;56.25;;;18.80;99.90;;;;;;5059902;28;20498;-72
2023/10/02 03:05:21;;;;;;;63.65;59.65;;;18.60;99.90;;;;;;5053020;28;20379;-72
2023/10/02 03:07:56;;;;;;;60.42;56.42;;;18.70;99.90;;;;;;5052541;28;20045;-72
2023/10/02 03:10:23;;;;;;;58.92;55.20;;;18.70;99.90;;;;;;5052929;28;20049;-73
2023/10/02 03:12:50;;;;;;;61.80;57.90;;;18.60;99.90;;;;;;5052759;28;20044;-72
2023/10/02 03:15:20;;;;;;;59.17;55.30;;;18.70;99.90;;;;;;5051082;28;20048;-72
2023/10/02 03:17:48;;;;;;;63.88;59.80;;;18.70;99.90;;;;;;5053069;28;20029;-72
2023/10/02 03:20:24;;;;;;;62.10;58.20;;;18.60;99.90;;;;;;5052482;28;20052;-72
2023/10/02 03:22:53;;;;;;;77.85;73.15;;;18.50;99.90;;;;;;5052359;28;20025;-72
2023/10/02 03:25:41;;;;;;;72.90;68.13;;;18.30;99.90;;;;;;5052430;28;20045;-72
2023/10/02 03:28:27;;;;;;;77.05;72.05;;;18.30;99.90;;;;;;5033431;28;20045;-72
2023/10/02 03:30:57;;;;;;;82.57;77.53;;;18.30;99.90;;;;;;5037844;28;20041;-72
2023/10/02 03:33:25;;;;;;;88.18;82.60;;;18.50;99.90;;;;;;5052468;28;20373;-73
2023/10/02 03:36:04;;;;;;;89.30;83.82;;;18.60;99.90;;;;;;5051954;28;20044;-73
2023/10/02 03:38:33;;;;;;;78.50;73.72;;;18.60;99.90;;;;;;5052655;28;20480;-72
2023/10/02 03:41:02;;;;;;;78.68;73.78;;;18.70;99.90;;;;;;5051215;28;20519;-72
2023/10/02 03:43:35;;;;;;;78.50;73.75;;;18.70;99.90;;;;;;5052567;28;20029;-72
2023/10/02 03:46:04;;;;;;;79.22;74.32;;;18.60;99.90;;;;;;5051863;28;20032;-72
2023/10/02 03:48:32;;;;;;;79.45;74.13;;;18.60;99.90;;;;;;5052139;28;20071;-72
2023/10/02 03:51:06;;;;;;;74.28;69.60;;;18.70;99.90;;;;;;5051404;28;20396;-73
2023/10/02 03:53:34;;;;;;;74.30;69.60;;;18.60;99.90;;;;;;5051689;28;20052;-72
2023/10/02 03:56:36;;;;;;;67.07;62.72;;;18.50;99.90;;;;;;5052115;28;20391;-72
2023/10/02 03:58:53;;;;;;;70.13;65.68;;;18.40;99.90;;;;;;5051743;28;20029;-72
2023/10/02 04:01:29;;;;;;;71.72;66.95;;;18.30;99.90;;;;;;5049993;28;20494;-73
2023/10/02 04:06:42;;;;;;;61.08;57.00;;;18.10;99.90;;;;;;5054806;28;20036;-72
2023/10/02 04:09:17;;;;;;;63.50;59.33;;;18.00;99.90;;;;;;5051820;28;20044;-73
2023/10/02 04:11:48;;;;;;;71.95;67.35;;;17.90;99.90;;;;;;5051504;28;20388;-72
2023/10/02 04:14:17;;;;;;;75.60;70.25;;;17.90;99.90;;;;;;5052148;28;20408;-72
2023/10/02 04:16:48;;;;;;;91.05;85.50;;;17.80;99.90;;;;;;5050529;28;20033;-72
2023/10/02 04:19:23;;;;;;;83.78;78.53;;;17.80;99.90;;;;;;5052002;28;20033;-73
2023/10/02 04:21:51;;;;;;;93.90;88.10;;;17.80;99.90;;;;;;5050935;28;20036;-73
2023/10/02 04:24:23;;;;;;;77.00;72.03;;;17.70;99.90;;;;;;5050185;28;20032;-73
2023/10/02 04:27:14;;;;;;;71.75;67.22;;;17.70;99.90;;;;;;5049284;28;20048;-73
2023/10/02 04:30:05;;;;;;;73.72;69.13;;;17.90;99.90;;;;;;5050183;28;20060;-73
2023/10/02 04:32:26;;;;;;;68.57;63.90;;;18.00;99.90;;;;;;5030181;28;20403;-73
2023/10/02 04:34:56;;;;;;;66.30;61.90;;;18.10;99.90;;;;;;5031661;28;20033;-73
2023/10/02 04:37:22;;;;;;;71.57;66.70;;;18.00;99.90;;;;;;5030831;28;20048;-73
2023/10/02 04:42:57;;;;;;;70.90;66.10;;;17.70;99.90;;;;;;5037604;28;20041;-73
2023/10/02 04:45:25;;;;;;;82.68;77.13;;;17.70;99.90;;;;;;5030309;28;20044;-73
2023/10/02 04:47:55;;;;;;;83.90;78.53;;;17.70;99.90;;;;;;5031578;28;20044;-73
2023/10/02 04:52:55;;;;;;;65.00;60.38;;;17.60;99.90;;;;;;5032508;28;20036;-73
2023/10/02 04:55:24;;;;;;;80.10;74.55;;;17.60;99.90;;;;;;5030503;28;20064;-72
2023/10/02 04:57:54;;;;;;;75.22;70.35;;;17.70;99.90;;;;;;5032074;28;20033;-73
2023/10/02 05:00:33;;;;;;;90.13;84.60;;;17.90;99.90;;;;;;5033007;28;20057;-73
2023/10/02 05:03:09;;;;;;;70.60;65.53;;;18.00;99.90;;;;;;5050448;28;20029;-73
2023/10/02 05:05:48;;;;;;;68.43;63.90;;;17.90;99.90;;;;;;5051468;28;20041;-73
2023/10/02 05:08:19;;;;;;;68.70;63.70;;;17.70;99.90;;;;;;5051283;28;20514;-73
2023/10/02 05:10:56;;;;;;;68.00;63.20;;;17.60;99.90;;;;;;5050635;28;20064;-73
2023/10/02 05:16:09;;;;;;;64.57;59.88;;;17.30;99.90;;;;;;5054497;28;20048;-73
2023/10/02 05:18:35;;;;;;;63.60;58.97;;;17.30;99.90;;;;;;5051834;28;20045;-73
2023/10/02 05:21:02;;;;;;;74.57;69.18;;;17.10;99.90;;;;;;5050936;28;20036;-73
2023/10/02 05:23:31;;;;;;;71.93;66.78;;;17.00;99.90;;;;;;5051417;28;20068;-73
2023/10/02 05:26:02;;;;;;;84.57;79.00;;;16.90;99.90;;;;;;5050467;28;20041;-73
2023/10/02 05:29:03;;;;;;;83.05;77.50;;;17.00;99.90;;;;;;5050641;28;20041;-73
2023/10/02 05:31:21;;;;;;;80.82;75.65;;;16.90;99.90;;;;;;5048808;28;20044;-72
2023/10/02 05:33:48;;;;;;;92.57;86.72;;;16.90;99.90;;;;;;5051914;28;20033;-73
2023/10/02 05:36:19;;;;;;;86.00;80.40;;;16.80;99.90;;;;;;5051061;28;20499;-73
2023/10/02 05:39:16;;;;;;;88.85;83.18;;;16.80;99.90;;;;;;5051901;28;20040;-74
2023/10/02 05:41:40;;;;;;;77.22;71.75;;;16.80;99.90;;;;;;5050409;28;20033;-73
2023/10/02 05:44:20;;;;;;;70.78;65.80;;;16.80;99.90;;;;;;5054564;28;20045;-73
2023/10/02 05:46:55;;;;;;;71.82;66.72;;;16.80;99.90;;;;;;5061641;28;20483;-73
2023/10/02 05:49:23;;;;;;;69.68;64.50;;;16.80;99.90;;;;;;5051651;28;20057;-73
2023/10/02 05:51:55;;;;;;;65.63;60.35;;;17.00;99.90;;;;;;5053040;28;20041;-74
2023/10/02 05:54:26;;;;;;;62.63;58.25;;;17.10;99.90;;;;;;5054527;28;20492;-73
2023/10/02 05:57:08;;;;;;;66.97;62.53;;;17.20;99.90;;;;;;5054532;28;20040;-72
2023/10/02 05:59:45;;;;;;;64.63;59.97;;;17.30;99.90;;;;;;5053713;28;20029;-73
2023/10/02 06:02:12;;;;;;;63.80;59.10;;;17.40;99.90;;;;;;5053462;28;20041;-73
2023/10/02 06:04:43;;;;;;;64.60;59.88;;;17.40;99.90;;;;;;5054653;28;20029;-73
2023/10/02 06:07:11;;;;;;;64.00;59.08;;;17.40;99.90;;;;;;5054956;28;20072;-72
2023/10/02 06:09:45;;;;;;;63.08;58.22;;;17.10;99.90;;;;;;5054564;28;20063;-72
2023/10/02 06:12:12;;;;;;;66.00;61.25;;;16.90;99.90;;;;;;5053968;28;20037;-73
2023/10/02 06:14:42;;;;;;;55.35;51.13;;;16.80;99.90;;;;;;5048050;28;20045;-73
2023/10/02 06:17:11;;;;;;;61.33;56.67;;;16.80;99.90;;;;;;5053554;28;20044;-73
2023/10/02 06:19:45;;;;;;;54.33;50.30;;;16.70;99.90;;;;;;5052555;28;20399;-74
2023/10/02 06:22:14;;;;;;;58.67;54.03;;;16.60;99.90;;;;;;5053616;28;20508;-73
2023/10/02 06:24:43;;;;;;;61.10;56.60;;;16.70;99.90;;;;;;5050790;28;20468;-74
2023/10/02 06:27:17;;;;;;;63.63;58.78;;;16.70;99.90;;;;;;5053934;28;20384;-73
2023/10/02 06:29:49;;;;;;;62.65;58.33;;;16.70;99.90;;;;;;5054401;28;20049;-73
2023/10/02 06:32:23;;;;;;;64.72;59.58;;;16.70;99.90;;;;;;5053396;28;20041;-73
2023/10/02 06:34:57;;;;;;;61.63;57.22;;;16.70;99.90;;;;;;5053828;28;20495;-73
2023/10/02 06:37:32;;;;;;;58.20;54.10;;;16.80;99.90;;;;;;5053547;28;20090;-73
2023/10/02 06:40:05;;;;;;;54.75;50.55;;;16.70;99.90;;;;;;5041562;28;20086;-75
2023/10/02 06:42:32;;;;;;;57.88;53.25;;;16.70;99.90;;;;;;5053216;28;20048;-75
2023/10/02 06:45:01;;;;;;;58.33;54.13;;;16.60;99.90;;;;;;5054589;28;20041;-75
2023/10/02 06:47:29;;;;;;;67.72;62.95;;;16.60;99.90;;;;;;5053140;28;20044;-75
2023/10/02 06:50:03;;;;;;;68.53;63.70;;;16.70;99.90;;;;;;5053162;28;20056;-75
2023/10/02 06:52:32;;;;;;;67.95;63.35;;;16.80;99.90;;;;;;5053315;28;20049;-75
2023/10/02 06:55:00;;;;;;;78.43;73.18;;;17.00;99.90;;;;;;5053434;28;20025;-75
2023/10/02 06:57:26;;;;;;;65.47;60.88;;;17.20;99.90;;;;;;5052487;28;20052;-75
2023/10/02 06:59:52;;;;;;;70.38;65.57;;;17.40;99.90;;;;;;5053542;28;20025;-75
2023/10/02 07:02:26;;;;;;;75.30;70.57;;;17.40;99.90;;;;;;5052277;28;20036;-75
2023/10/02 07:04:53;;;;;;;68.78;63.90;;;17.50;99.90;;;;;;5041836;28;20491;-74
2023/10/02 07:07:26;;;;;;;49.75;45.83;;;17.50;99.90;;;;;;5052751;28;20379;-72
2023/10/02 07:10:07;;;;;;;42.17;38.95;;;17.70;99.90;;;;;;5052454;28;20037;-72
2023/10/02 07:12:39;;;;;;;62.83;58.40;;;17.90;99.90;;;;;;5050376;28;20048;-72
2023/10/02 07:15:22;;;;;;;64.93;60.55;;;18.00;99.90;;;;;;5052864;28;20037;-67
2023/10/02 07:17:48;;;;;;;76.63;70.90;;;18.30;99.90;;;;;;5052498;28;20036;-70
2023/10/02 07:20:15;;;;;;;37.45;34.45;;;18.90;99.90;;;;;;5049297;28;20542;-71
2023/10/02 07:22:43;;;;;;;51.17;47.42;;;18.90;99.90;;;;;;5046776;28;20492;-70
2023/10/02 07:25:09;;;;;;;46.95;43.40;;;18.80;99.90;;;;;;5048099;28;20052;-71
2023/10/02 07:27:37;;;;;;;50.28;46.60;;;18.70;99.90;;;;;;5052468;28;20029;-71
2023/10/02 07:30:04;;;;;;;38.55;35.53;;;18.70;99.90;;;;;;5052786;28;20044;-70
2023/10/02 07:32:34;;;;;;;34.70;31.80;;;18.70;99.90;;;;;;5051239;28;20517;-71
2023/10/02 07:35:09;;;;;;;46.60;42.95;;;18.80;99.90;;;;;;5052914;28;20479;-71
2023/10/02 07:37:36;;;;;;;51.38;47.50;;;19.20;99.90;;;;;;5052504;28;20060;-70
2023/10/02 07:40:06;;;;;;;50.30;46.58;;;19.30;99.90;;;;;;5053348;28;20391;-71
2023/10/02 07:42:32;;;;;;;48.88;45.13;;;19.60;99.90;;;;;;5052026;28;20480;-62
2023/10/02 07:48:08;;;;;;;67.97;63.60;;;20.10;99.90;;;;;;5045498;28;20052;-65
2023/10/02 07:50:35;;;;;;;81.78;76.70;;;20.30;99.90;;;;;;5049606;28;20053;-68
2023/10/02 07:53:06;;;;;;;77.10;72.28;;;20.40;99.90;;;;;;5063595;28;20029;-67
2023/10/02 07:55:39;;;;;;;100.80;94.70;;;20.30;99.90;;;;;;5051661;28;20400;-67
2023/10/02 07:58:08;;;;;;;130.48;122.72;;;20.40;99.90;;;;;;5052292;28;20071;-67
2023/10/02 08:00:41;;;;;;;103.28;97.18;;;20.50;99.90;;;;;;5042845;28;20384;-68
2023/10/02 08:05:56;;;;;;;96.57;90.38;;;20.40;99.90;;;;;;5053261;28;20036;-67
2023/10/02 08:08:25;;;;;;;89.75;83.63;;;20.60;99.90;;;;;;5052404;28;20056;-67
2023/10/02 08:10:53;;;;;;;108.20;101.82;;;20.60;99.90;;;;;;5051198;28;20045;-67
2023/10/02 08:13:35;;;;;;;93.93;88.28;;;20.80;99.90;;;;;;5050760;28;20511;-67
2023/10/02 08:16:06;;;;;;;118.88;111.93;;;20.70;99.90;;;;;;5049950;28;20049;-67
2023/10/02 08:18:32;;;;;;;130.20;122.57;;;20.80;99.90;;;;;;5051807;28;20036;-67
2023/10/02 08:21:00;;;;;;;95.78;89.72;;;20.90;99.90;;;;;;5051844;28;20045;-67
2023/10/02 08:23:27;;;;;;;101.18;95.13;;;20.80;99.90;;;;;;5050777;28;20048;-67
2023/10/02 08:26:06;;;;;;;91.13;85.47;;;20.80;99.90;;;;;;5051835;28;20044;-67
2023/10/02 08:28:35;;;;;;;136.00;128.18;;;20.90;99.90;;;;;;5052353;28;20368;-68
2023/10/02 08:31:02;;;;;;;106.43;99.80;;;21.10;99.90;;;;;;5051357;28;20069;-67
2023/10/02 08:33:30;;;;;;;123.47;115.80;;;21.10;99.90;;;;;;5051332;28;20025;-67
2023/10/02 08:35:58;;;;;;;103.38;96.97;;;21.30;99.90;;;;;;5048807;28;20045;-67
2023/10/02 08:38:26;;;;;;;127.97;120.20;;;21.30;99.90;;;;;;5050258;28;20048;-68
2023/10/02 08:40:59;;;;;;;116.97;109.85;;;21.30;99.90;;;;;;5047292;28;20039;-67
2023/10/02 08:43:44;;;;;;;108.72;102.18;;;21.40;99.90;;;;;;5052015;28;20040;-67
2023/10/02 08:46:22;;;;;;;111.78;103.93;;;21.50;99.90;;;;;;5051482;28;20526;-67
2023/10/02 08:48:57;;;;;;;115.10;107.85;;;21.60;99.90;;;;;;5047423;28;20032;-67
2023/10/02 08:51:33;;;;;;;140.75;132.73;;;21.80;99.90;;;;;;5051508;28;20648;-67
2023/10/02 08:54:00;;;;;;;174.35;164.20;;;22.00;99.90;;;;;;5051947;28;20028;-68
2023/10/02 08:56:40;;;;;;;190.02;179.55;;;22.20;99.90;;;;;;5049785;28;20040;-68
2023/10/02 08:59:28;;;;;;;193.70;182.70;;;22.30;99.90;;;;;;5045206;28;20030;-68
2023/10/02 09:02:16;;;;;;;221.02;208.93;;;22.50;99.90;;;;;;5043229;28;20033;-67
2023/10/02 09:05:09;;;;;;;215.32;203.68;;;22.60;99.90;;;;;;5051524;28;20045;-68
2023/10/02 09:07:45;;;;;;;244.80;232.00;;;22.70;99.90;;;;;;5044337;28;20585;-68
2023/10/02 09:10:41;;;;;;;260.00;246.05;;;22.80;99.90;;;;;;5038711;28;20059;-68
2023/10/02 09:13:13;;;;;;;273.77;259.27;;;23.00;99.90;;;;;;5048192;28;20047;-68
2023/10/02 09:15:44;;;;;;;294.40;278.95;;;23.00;99.90;;;;;;5054112;28;20522;-68
2023/10/02 09:18:22;;;;;;;276.48;261.13;;;23.10;99.90;;;;;;5053948;28;20029;-67
2023/10/02 09:21:04;;;;;;;302.95;287.08;;;23.20;99.90;;;;;;5055507;28;20045;-68
2023/10/02 09:23:30;;;;;;;310.63;294.27;;;23.40;99.90;;;;;;5044905;28;20052;-68
2023/10/02 09:26:16;;;;;;;344.42;325.77;;;23.50;99.90;;;;;;5053634;28;20033;-68
2023/10/02 09:28:56;;;;;;;392.92;371.63;;;23.60;99.90;;;;;;5062697;28;20044;-67
2023/10/02 09:31:24;;;;;;;413.17;390.38;;;23.80;99.90;;;;;;5054324;28;20487;-70
2023/10/02 09:33:51;;;;;;;405.88;383.80;;;23.90;99.90;;;;;;5055286;28;20045;-71
2023/10/02 09:36:19;;;;;;;386.75;366.10;;;24.00;99.90;;;;;;5053643;28;20044;-71
2023/10/02 09:38:46;;;;;;;396.23;375.00;;;24.20;99.90;;;;;;5050405;28;20020;-66
2023/10/02 09:41:15;;;;;;;435.08;411.27;;;24.30;99.90;;;;;;5065109;28;20025;-71
2023/10/02 09:43:42;;;;;;;438.58;414.75;;;24.30;99.90;;;;;;5053008;28;20471;-71
2023/10/02 09:46:21;;;;;;;377.85;357.75;;;24.50;99.90;;;;;;5053857;28;20044;-71
2023/10/02 09:49:02;;;;;;;426.08;402.48;;;24.60;99.90;;;;;;5056431;28;20048;-70
2023/10/02 09:51:37;;;;;;;;;;;24.70;99.90;;;;;;5050412;28;20049;-71
2023/10/02 09:54:13;;;;;;;392.25;370.83;;;24.90;99.90;;;;;;5051045;28;19916;-70
2023/10/02 09:56:51;;;;;;;371.50;351.83;;;24.90;99.90;;;;;;5053411;28;20460;-71
2023/10/02 09:59:24;;;;;;;442.10;417.50;;;25.00;99.90;;;;;;5054744;28;20037;-71
2023/10/02 10:02:57;;;;;;;439.85;414.90;;;25.10;99.90;;;;;;5051958;28;20052;-71
2023/10/02 10:07:51;;;;;;;436.73;412.17;;;25.30;99.90;;;;;;5060532;28;20021;-71
2023/10/02 10:10:27;;;;;;;439.95;415.25;;;25.40;99.90;;;;;;5064082;28;20495;-71
2023/10/02 10:13:09;;;;;;;455.92;430.38;;;25.40;99.90;;;;;;5054464;28;20040;-71
2023/10/02 10:15:37;;;;;;;451.77;426.38;;;25.40;99.90;;;;;;5037357;28;20049;-71
2023/10/02 10:18:12;;;;;;;474.38;446.98;;;25.40;99.90;;;;;;5069073;28;20047;-70
2023/10/02 10:20:38;;;;;;;466.63;440.30;;;25.50;99.90;;;;;;5068502;28;20049;-71
2023/10/02 10:23:31;;;;;;;462.02;435.73;;;25.50;99.90;;;;;;5054223;28;20037;-71
2023/10/02 10:26:07;;;;;;;461.13;434.50;;;25.60;99.90;;;;;;5054260;28;20037;-71
2023/10/02 10:28:33;;;;;;;474.45;447.42;;;25.60;99.90;;;;;;5054678;28;20041;-71
2023/10/02 10:31:02;;;;;;;473.15;446.27;;;25.70;99.90;;;;;;5053358;28;20055;-71
2023/10/02 10:33:33;;;;;;;510.75;481.55;;;25.70;99.90;;;;;;5054731;28;20029;-71
2023/10/02 10:36:05;;;;;;;511.17;481.33;;;25.70;99.90;;;;;;5053993;28;20037;-70
2023/10/02 10:38:36;;;;;;;497.40;468.52;;;25.60;99.90;;;;;;5054805;28;20052;-71
2023/10/02 10:41:06;;;;;;;494.98;466.45;;;25.70;99.90;;;;;;5055031;28;20041;-71
2023/10/02 10:46:22;;;;;;;516.00;485.83;;;25.80;99.90;;;;;;5054038;28;20056;-71
2023/10/02 10:48:59;;;;;;;512.33;482.92;;;25.80;99.90;;;;;;5053638;28;20037;-71
2023/10/02 10:51:28;;;;;;;515.65;486.13;;;25.90;99.90;;;;;;5053436;28;20052;-71
2023/10/02 10:54:13;;;;;;;520.60;490.75;;;26.00;99.90;;;;;;5054096;28;20266;-71
2023/10/02 10:56:45;;;;;;;496.38;468.30;;;26.00;99.90;;;;;;5053669;28;20044;-71
2023/10/02 10:59:12;;;;;;;502.33;473.63;;;26.10;99.90;;;;;;5052243;28;20067;-71
2023/10/02 11:04:34;;;;;;;524.58;494.17;;;26.10;99.90;;;;;;5054911;28;20021;-71
2023/10/02 11:07:19;;;;;;;522.08;492.17;;;26.20;99.90;;;;;;5052295;28;20407;-71
2023/10/02 11:10:20;;;;;;;554.95;522.78;;;26.30;99.90;;;;;;5053003;28;20053;-71
2023/10/02 11:13:08;;;;;;;572.47;538.30;;;26.40;99.90;;;;;;5052334;28;20515;-71
2023/10/02 11:15:47;;;;;;;566.30;532.83;;;26.40;99.90;;;;;;5051751;28;20040;-71
2023/10/02 11:18:21;;;;;;;567.85;534.55;;;26.50;99.90;;;;;;5063839;28;20048;-71
2023/10/02 11:20:51;;;;;;;570.00;536.55;;;26.50;99.90;;;;;;5053303;28;20392;-71
2023/10/02 11:23:30;;;;;;;591.55;555.78;;;26.50;99.90;;;;;;5053210;28;20510;-71
2023/10/02 11:25:58;;;;;;;544.55;512.70;;;26.50;99.90;;;;;;5052795;28;20048;-71
2023/10/02 11:28:28;;;;;;;526.10;495.38;;;26.50;99.90;;;;;;5052230;28;20049;-71
2023/10/02 11:31:35;;;;;;;547.88;515.08;;;26.50;99.90;;;;;;5052384;28;20052;-71
2023/10/02 11:34:03;;;;;;;1999.90;999.90;;;26.50;99.90;;;;;;5052984;28;20430;-69
2023/10/02 11:36:33;;;;;;;1999.90;999.90;;;26.60;99.90;;;;;;5057163;28;20047;-72
2023/10/02 11:39:07;;;;;;;1999.90;999.90;;;26.60;99.90;;;;;;5054619;28;20028;-72
2023/10/02 11:41:35;;;;;;;1999.90;999.90;;;26.80;99.90;;;;;;5050859;28;20044;-71
2023/10/02 11:44:03;;;;;;;1999.90;999.90;;;26.80;99.90;;;;;;5052652;28;20048;-70
2023/10/02 11:46:30;;;;;;;1999.90;999.90;;;26.90;99.90;;;;;;5051451;28;20395;-71
2023/10/02 11:48:56;;;;;;;1999.90;999.90;;;27.00;99.90;;;;;;5037914;28;20411;-71
2023/10/02 11:51:28;;;;;;;1999.90;999.90;;;27.00;99.90;;;;;;5060053;28;20048;-71
2023/10/02 11:53:56;;;;;;;1999.90;999.90;;;27.00;99.90;;;;;;5052875;28;20488;-72
2023/10/02 11:56:23;;;;;;;1999.90;999.90;;;27.10;99.90;;;;;;5051910;28;20048;-72
2023/10/02 11:58:52;;;;;;;1999.90;999.90;;;27.10;99.90;;;;;;5065509;28;20157;-71
2023/10/02 12:01:26;;;;;;;1999.90;999.90;;;27.20;99.90;;;;;;5046729;28;20391;-71
2023/10/02 12:03:57;;;;;;;1999.90;999.90;;;27.20;99.90;;;;;;5051354;28;20033;-71
2023/10/02 12:06:23;;;;;;;;;;;27.30;99.90;;;;;;5052441;28;20381;-72
2023/10/02 12:08:50;;;;;;;1999.90;999.90;;;27.30;99.90;;;;;;5051987;28;19908;-72
2023/10/02 12:11:16;;;;;;;1999.90;999.90;;;27.30;99.90;;;;;;5051369;28;20063;-71
2023/10/02 12:13:45;;;;;;;1999.90;999.90;;;27.30;99.90;;;;;;5052054;28;20032;-71
2023/10/02 12:16:11;;;;;;;1999.90;999.90;;;27.40;99.90;;;;;;5051287;28;20045;-72
2023/10/02 12:18:38;;;;;;;1999.90;999.90;;;27.40;99.90;;;;;;5051785;28;20036;-71
2023/10/02 12:21:16;;;;;;;1999.90;999.90;;;27.60;99.90;;;;;;5053401;28;20376;-72
2023/10/02 12:23:43;;;;;;;1999.90;999.90;;;27.70;99.90;;;;;;5051679;28;20021;-71
2023/10/02 12:26:16;;;;;;;1999.90;999.90;;;27.80;99.90;;;;;;5051396;28;20024;-72
2023/10/02 12:28:42;;;;;;;1999.90;999.90;;;27.90;99.90;;;;;;5051262;28;20033;-72
2023/10/02 12:31:14;;;;;;;1999.90;999.90;;;27.90;99.90;;;;;;5050990;28;20041;-71
2023/10/02 12:33:44;;;;;;;1999.90;999.90;;;27.90;99.90;;;;;;5051942;28;20037;-72
2023/10/02 12:36:11;;;;;;;1999.90;999.90;;;28.00;99.90;;;;;;5051957;28;20482;-72
2023/10/02 12:38:38;;;;;;;1999.90;999.90;;;28.10;99.90;;;;;;5051482;28;20045;-72
2023/10/02 12:41:14;;;;;;;1999.90;999.90;;;28.10;99.90;;;;;;5050928;28;20037;-72
2023/10/02 12:43:44;;;;;;;1999.90;999.90;;;28.20;99.90;;;;;;5050895;28;20044;-71
2023/10/02 12:46:15;;;;;;;1999.90;999.90;;;28.30;99.90;;;;;;5050893;28;20414;-71
2023/10/02 12:48:47;;;;;;;1999.90;999.90;;;28.30;99.90;;;;;;5049410;28;20025;-71
2023/10/02 12:51:16;;;;;;;1999.90;999.90;;;28.30;99.90;;;;;;5050846;28;20391;-71
2023/10/02 12:53:45;;;;;;;1999.90;999.90;;;28.30;99.90;;;;;;5051119;28;20033;-71
2023/10/02 12:56:24;;;;;;;1999.90;999.90;;;28.30;99.90;;;;;;5051922;28;20044;-71
2023/10/02 12:58:52;;;;;;;1999.90;999.90;;;28.30;99.90;;;;;;5050805;28;20403;-71
2023/10/02 13:01:19;;;;;;;1999.90;999.90;;;28.50;99.90;;;;;;5044887;28;20527;-71
2023/10/02 13:03:45;;;;;;;1999.90;999.90;;;28.60;99.90;;;;;;5052275;28;20056;-72
2023/10/02 13:06:12;;;;;;;1999.90;999.90;;;28.70;99.90;;;;;;5069471;28;20040;-72
2023/10/02 13:08:42;;;;;;;1999.90;999.90;;;28.70;99.90;;;;;;5050411;28;20495;-72
2023/10/02 13:11:12;;;;;;;1999.90;999.90;;;28.80;99.90;;;;;;5051043;28;20040;-71
2023/10/02 13:13:46;;;;;;;1999.90;999.90;;;28.90;99.90;;;;;;5051948;28;20049;-72
2023/10/02 13:16:12;;;;;;;1999.90;999.90;;;28.90;99.90;;;;;;5045885;28;20051;-72
2023/10/02 13:18:39;;;;;;;1999.90;999.90;;;29.00;99.90;;;;;;5051007;28;20075;-72